sensor_id;sensor_type;location;lat;lon;timestamp;temperature;humidity
20866;DHT22;10593;48.398;10.698;2024-02-26T00:01:23;8.90;50.10
20866;DHT22;10593;48.398;10.698;2024-02-26T00:03:49;8.80;50.10
20866;DHT22;10593;48.398;10.698;2024-02-26T00:06:15;8.80;50.10
20866;DHT22;10593;48.398;10.698;2024-02-26T00:08:41;8.80;50.10
20866;DHT22;10593;48.398;10.698;2024-02-26T00:11:06;8.80;50.10
20866;DHT22;10593;48.398;10.698;2024-02-26T00:13:32;8.80;50.10
20866;DHT22;10593;48.398;10.698;2024-02-26T00:15:58;8.80;50.20
20866;DHT22;10593;48.398;10.698;2024-02-26T00:18:23;8.70;50.10
20866;DHT22;10593;48.398;10.698;2024-02-26T00:20:49;8.70;50.10
20866;DHT22;10593;48.398;10.698;2024-02-26T00:23:15;8.70;50.20
20866;DHT22;10593;48.398;10.698;2024-02-26T00:25:41;8.70;50.30
20866;DHT22;10593;48.398;10.698;2024-02-26T00:28:10;8.60;50.20
20866;DHT22;10593;48.398;10.698;2024-02-26T00:30:35;8.60;50.20
20866;DHT22;10593;48.398;10.698;2024-02-26T00:33:01;8.60;50.20
20866;DHT22;10593;48.398;10.698;2024-02-26T00:35:27;8.60;50.20
20866;DHT22;10593;48.398;10.698;2024-02-26T00:37:53;8.60;50.20
20866;DHT22;10593;48.398;10.698;2024-02-26T00:40:19;8.60;50.30
20866;DHT22;10593;48.398;10.698;2024-02-26T00:42:44;8.50;50.30
20866;DHT22;10593;48.398;10.698;2024-02-26T00:45:14;8.50;50.30
20866;DHT22;10593;48.398;10.698;2024-02-26T00:47:41;8.50;50.40
20866;DHT22;10593;48.398;10.698;2024-02-26T00:50:08;8.50;50.50
20866;DHT22;10593;48.398;10.698;2024-02-26T00:52:34;8.50;50.50
20866;DHT22;10593;48.398;10.698;2024-02-26T00:55:01;8.50;50.60
20866;DHT22;10593;48.398;10.698;2024-02-26T00:57:27;8.40;50.70
20866;DHT22;10593;48.398;10.698;2024-02-26T00:59:53;8.40;50.80
20866;DHT22;10593;48.398;10.698;2024-02-26T01:02:21;8.40;50.70
20866;DHT22;10593;48.398;10.698;2024-02-26T01:04:47;8.40;50.70
20866;DHT22;10593;48.398;10.698;2024-02-26T01:07:13;8.40;50.80
20866;DHT22;10593;48.398;10.698;2024-02-26T01:09:38;8.40;50.80
20866;DHT22;10593;48.398;10.698;2024-02-26T01:12:04;8.40;50.90
20866;DHT22;10593;48.398;10.698;2024-02-26T01:14:30;8.40;50.90
20866;DHT22;10593;48.398;10.698;2024-02-26T01:16:55;8.40;50.90
20866;DHT22;10593;48.398;10.698;2024-02-26T01:19:21;8.40;50.90
20866;DHT22;10593;48.398;10.698;2024-02-26T01:21:47;8.40;50.90
20866;DHT22;10593;48.398;10.698;2024-02-26T01:24:12;8.40;50.90
20866;DHT22;10593;48.398;10.698;2024-02-26T01:26:38;8.40;51.00
20866;DHT22;10593;48.398;10.698;2024-02-26T01:29:04;8.40;50.90
20866;DHT22;10593;48.398;10.698;2024-02-26T01:31:30;8.40;50.90
20866;DHT22;10593;48.398;10.698;2024-02-26T01:33:55;8.40;51.00
20866;DHT22;10593;48.398;10.698;2024-02-26T01:36:21;8.40;51.00
20866;DHT22;10593;48.398;10.698;2024-02-26T01:38:47;8.40;50.90
20866;DHT22;10593;48.398;10.698;2024-02-26T01:41:16;8.40;50.90
20866;DHT22;10593;48.398;10.698;2024-02-26T01:43:42;8.40;50.90
20866;DHT22;10593;48.398;10.698;2024-02-26T01:46:11;8.40;50.90
20866;DHT22;10593;48.398;10.698;2024-02-26T01:48:43;8.40;51.00
20866;DHT22;10593;48.398;10.698;2024-02-26T01:51:12;8.40;51.00
20866;DHT22;10593;48.398;10.698;2024-02-26T01:53:39;8.40;50.90
20866;DHT22;10593;48.398;10.698;2024-02-26T01:56:06;8.40;50.90
20866;DHT22;10593;48.398;10.698;2024-02-26T01:58:34;8.40;50.90
20866;DHT22;10593;48.398;10.698;2024-02-26T02:01:02;8.40;50.90
20866;DHT22;10593;48.398;10.698;2024-02-26T02:03:29;8.40;50.90
20866;DHT22;10593;48.398;10.698;2024-02-26T02:05:55;8.30;50.80
20866;DHT22;10593;48.398;10.698;2024-02-26T02:08:21;8.30;50.70
20866;DHT22;10593;48.398;10.698;2024-02-26T02:10:49;8.30;50.70
20866;DHT22;10593;48.398;10.698;2024-02-26T02:13:15;8.30;50.60
20866;DHT22;10593;48.398;10.698;2024-02-26T02:15:41;8.30;50.50
20866;DHT22;10593;48.398;10.698;2024-02-26T02:18:07;8.30;50.50
20866;DHT22;10593;48.398;10.698;2024-02-26T02:20:33;8.30;50.40
20866;DHT22;10593;48.398;10.698;2024-02-26T02:22:59;8.30;50.40
20866;DHT22;10593;48.398;10.698;2024-02-26T02:25:26;8.30;50.40
20866;DHT22;10593;48.398;10.698;2024-02-26T02:27:55;8.30;50.50
20866;DHT22;10593;48.398;10.698;2024-02-26T02:30:24;8.30;50.40
20866;DHT22;10593;48.398;10.698;2024-02-26T02:32:54;8.30;50.40
20866;DHT22;10593;48.398;10.698;2024-02-26T02:35:20;8.30;50.50
20866;DHT22;10593;48.398;10.698;2024-02-26T02:37:46;8.30;50.40
20866;DHT22;10593;48.398;10.698;2024-02-26T02:40:12;8.30;50.50
20866;DHT22;10593;48.398;10.698;2024-02-26T02:42:37;8.20;50.40
20866;DHT22;10593;48.398;10.698;2024-02-26T02:45:03;8.20;50.50
20866;DHT22;10593;48.398;10.698;2024-02-26T02:47:29;8.20;50.60
20866;DHT22;10593;48.398;10.698;2024-02-26T02:49:55;8.20;50.60
20866;DHT22;10593;48.398;10.698;2024-02-26T02:52:21;8.20;50.60
20866;DHT22;10593;48.398;10.698;2024-02-26T02:54:46;8.20;50.60
20866;DHT22;10593;48.398;10.698;2024-02-26T02:57:12;8.20;50.50
20866;DHT22;10593;48.398;10.698;2024-02-26T02:59:39;8.20;50.50
20866;DHT22;10593;48.398;10.698;2024-02-26T03:02:04;8.20;50.50
20866;DHT22;10593;48.398;10.698;2024-02-26T03:04:31;8.20;50.50
20866;DHT22;10593;48.398;10.698;2024-02-26T03:06:57;8.10;50.50
20866;DHT22;10593;48.398;10.698;2024-02-26T03:09:23;8.10;50.50
20866;DHT22;10593;48.398;10.698;2024-02-26T03:11:49;8.20;50.60
20866;DHT22;10593;48.398;10.698;2024-02-26T03:14:14;8.20;50.60
20866;DHT22;10593;48.398;10.698;2024-02-26T03:16:41;8.10;50.50
20866;DHT22;10593;48.398;10.698;2024-02-26T03:19:07;8.10;50.50
20866;DHT22;10593;48.398;10.698;2024-02-26T03:21:32;8.10;50.50
20866;DHT22;10593;48.398;10.698;2024-02-26T03:23:58;8.10;50.60
20866;DHT22;10593;48.398;10.698;2024-02-26T03:26:24;8.10;50.60
20866;DHT22;10593;48.398;10.698;2024-02-26T03:28:49;8.10;50.60
20866;DHT22;10593;48.398;10.698;2024-02-26T03:31:15;8.10;50.60
20866;DHT22;10593;48.398;10.698;2024-02-26T03:33:41;8.10;50.50
20866;DHT22;10593;48.398;10.698;2024-02-26T03:36:06;8.10;50.50
20866;DHT22;10593;48.398;10.698;2024-02-26T03:38:33;8.10;50.60
20866;DHT22;10593;48.398;10.698;2024-02-26T03:40:58;8.10;50.60
20866;DHT22;10593;48.398;10.698;2024-02-26T03:43:24;8.10;50.60
20866;DHT22;10593;48.398;10.698;2024-02-26T03:45:50;8.10;51.20
20866;DHT22;10593;48.398;10.698;2024-02-26T03:48:15;8.10;50.60
20866;DHT22;10593;48.398;10.698;2024-02-26T03:50:41;8.10;50.60
20866;DHT22;10593;48.398;10.698;2024-02-26T03:53:07;8.10;50.60
20866;DHT22;10593;48.398;10.698;2024-02-26T03:55:34;8.20;50.70
20866;DHT22;10593;48.398;10.698;2024-02-26T03:58:00;8.10;50.60
20866;DHT22;10593;48.398;10.698;2024-02-26T04:00:26;8.10;50.60
20866;DHT22;10593;48.398;10.698;2024-02-26T04:02:54;8.10;50.60
20866;DHT22;10593;48.398;10.698;2024-02-26T04:05:19;8.10;50.60
20866;DHT22;10593;48.398;10.698;2024-02-26T04:07:45;8.10;50.60
20866;DHT22;10593;48.398;10.698;2024-02-26T04:10:11;8.10;50.70
20866;DHT22;10593;48.398;10.698;2024-02-26T04:12:40;8.10;50.70
20866;DHT22;10593;48.398;10.698;2024-02-26T04:15:08;8.10;50.70
20866;DHT22;10593;48.398;10.698;2024-02-26T04:17:35;8.10;50.70
20866;DHT22;10593;48.398;10.698;2024-02-26T04:20:02;8.10;50.90
20866;DHT22;10593;48.398;10.698;2024-02-26T04:22:28;8.10;51.00
20866;DHT22;10593;48.398;10.698;2024-02-26T04:24:53;8.10;51.00
20866;DHT22;10593;48.398;10.698;2024-02-26T04:27:19;8.10;51.10
20866;DHT22;10593;48.398;10.698;2024-02-26T04:29:45;8.10;51.20
20866;DHT22;10593;48.398;10.698;2024-02-26T04:32:10;8.10;51.20
20866;DHT22;10593;48.398;10.698;2024-02-26T04:34:36;8.10;51.20
20866;DHT22;10593;48.398;10.698;2024-02-26T04:37:02;8.10;51.30
20866;DHT22;10593;48.398;10.698;2024-02-26T04:39:27;8.10;51.30
20866;DHT22;10593;48.398;10.698;2024-02-26T04:41:53;8.10;51.40
20866;DHT22;10593;48.398;10.698;2024-02-26T04:44:19;8.10;51.30
20866;DHT22;10593;48.398;10.698;2024-02-26T04:46:44;8.10;51.30
20866;DHT22;10593;48.398;10.698;2024-02-26T04:49:10;8.10;51.30
20866;DHT22;10593;48.398;10.698;2024-02-26T04:51:36;8.10;51.40
20866;DHT22;10593;48.398;10.698;2024-02-26T04:54:02;8.10;51.50
20866;DHT22;10593;48.398;10.698;2024-02-26T04:56:28;8.10;51.60
20866;DHT22;10593;48.398;10.698;2024-02-26T04:58:54;8.10;51.70
20866;DHT22;10593;48.398;10.698;2024-02-26T05:01:19;8.10;51.70
20866;DHT22;10593;48.398;10.698;2024-02-26T05:03:45;8.10;51.80
20866;DHT22;10593;48.398;10.698;2024-02-26T05:06:11;8.10;51.80
20866;DHT22;10593;48.398;10.698;2024-02-26T05:08:36;8.10;51.90
20866;DHT22;10593;48.398;10.698;2024-02-26T05:11:04;8.00;51.80
20866;DHT22;10593;48.398;10.698;2024-02-26T05:13:31;8.00;52.00
20866;DHT22;10593;48.398;10.698;2024-02-26T05:15:57;8.00;52.00
20866;DHT22;10593;48.398;10.698;2024-02-26T05:18:22;8.00;52.00
20866;DHT22;10593;48.398;10.698;2024-02-26T05:20:48;8.00;52.00
20866;DHT22;10593;48.398;10.698;2024-02-26T05:23:14;8.00;52.00
20866;DHT22;10593;48.398;10.698;2024-02-26T05:25:39;8.00;52.10
20866;DHT22;10593;48.398;10.698;2024-02-26T05:28:06;8.00;52.10
20866;DHT22;10593;48.398;10.698;2024-02-26T05:30:32;8.00;52.20
20866;DHT22;10593;48.398;10.698;2024-02-26T05:32:58;8.00;52.20
20866;DHT22;10593;48.398;10.698;2024-02-26T05:35:24;7.90;52.20
20866;DHT22;10593;48.398;10.698;2024-02-26T05:37:51;7.90;52.20
20866;DHT22;10593;48.398;10.698;2024-02-26T05:40:16;7.90;52.20
20866;DHT22;10593;48.398;10.698;2024-02-26T05:42:42;7.90;52.20
20866;DHT22;10593;48.398;10.698;2024-02-26T05:45:10;7.90;52.20
20866;DHT22;10593;48.398;10.698;2024-02-26T05:47:36;7.90;52.10
20866;DHT22;10593;48.398;10.698;2024-02-26T05:50:11;7.90;52.10
20866;DHT22;10593;48.398;10.698;2024-02-26T05:52:37;7.80;52.00
20866;DHT22;10593;48.398;10.698;2024-02-26T05:55:06;7.80;52.10
20866;DHT22;10593;48.398;10.698;2024-02-26T05:57:33;7.80;52.20
20866;DHT22;10593;48.398;10.698;2024-02-26T05:59:59;7.80;52.20
20866;DHT22;10593;48.398;10.698;2024-02-26T06:02:29;7.80;52.30
20866;DHT22;10593;48.398;10.698;2024-02-26T06:04:56;7.80;52.30
20866;DHT22;10593;48.398;10.698;2024-02-26T06:07:22;7.80;52.40
20866;DHT22;10593;48.398;10.698;2024-02-26T06:09:48;7.80;52.40
20866;DHT22;10593;48.398;10.698;2024-02-26T06:12:14;7.80;52.90
20866;DHT22;10593;48.398;10.698;2024-02-26T06:14:39;7.80;52.40
20866;DHT22;10593;48.398;10.698;2024-02-26T06:17:05;7.80;52.20
20866;DHT22;10593;48.398;10.698;2024-02-26T06:19:32;7.80;52.30
20866;DHT22;10593;48.398;10.698;2024-02-26T06:21:58;7.80;52.20
20866;DHT22;10593;48.398;10.698;2024-02-26T06:24:23;7.80;52.20
20866;DHT22;10593;48.398;10.698;2024-02-26T06:26:49;7.80;52.30
20866;DHT22;10593;48.398;10.698;2024-02-26T06:29:15;7.80;52.30
20866;DHT22;10593;48.398;10.698;2024-02-26T06:31:40;7.80;52.20
20866;DHT22;10593;48.398;10.698;2024-02-26T06:34:06;7.80;52.40
20866;DHT22;10593;48.398;10.698;2024-02-26T06:36:31;7.70;52.30
20866;DHT22;10593;48.398;10.698;2024-02-26T06:38:58;7.70;52.40
20866;DHT22;10593;48.398;10.698;2024-02-26T06:41:24;7.70;52.40
20866;DHT22;10593;48.398;10.698;2024-02-26T06:43:55;7.70;52.40
20866;DHT22;10593;48.398;10.698;2024-02-26T06:46:24;7.60;52.50
20866;DHT22;10593;48.398;10.698;2024-02-26T06:48:51;7.60;52.60
20866;DHT22;10593;48.398;10.698;2024-02-26T06:51:17;7.60;52.60
20866;DHT22;10593;48.398;10.698;2024-02-26T06:53:43;7.60;52.60
20866;DHT22;10593;48.398;10.698;2024-02-26T06:56:08;7.60;52.70
20866;DHT22;10593;48.398;10.698;2024-02-26T06:58:34;7.60;52.70
20866;DHT22;10593;48.398;10.698;2024-02-26T07:01:00;7.60;52.90
20866;DHT22;10593;48.398;10.698;2024-02-26T07:03:25;7.60;53.00
20866;DHT22;10593;48.398;10.698;2024-02-26T07:05:51;7.60;53.00
20866;DHT22;10593;48.398;10.698;2024-02-26T07:08:17;7.60;53.10
20866;DHT22;10593;48.398;10.698;2024-02-26T07:10:43;7.70;53.30
20866;DHT22;10593;48.398;10.698;2024-02-26T07:13:09;7.60;53.10
20866;DHT22;10593;48.398;10.698;2024-02-26T07:15:35;7.70;53.20
20866;DHT22;10593;48.398;10.698;2024-02-26T07:18:00;7.70;53.20
20866;DHT22;10593;48.398;10.698;2024-02-26T07:20:29;7.70;53.20
20866;DHT22;10593;48.398;10.698;2024-02-26T07:22:55;7.70;53.10
20866;DHT22;10593;48.398;10.698;2024-02-26T07:25:22;7.80;53.20
20866;DHT22;10593;48.398;10.698;2024-02-26T07:27:48;7.80;53.30
20866;DHT22;10593;48.398;10.698;2024-02-26T07:30:14;7.80;53.20
20866;DHT22;10593;48.398;10.698;2024-02-26T07:32:40;7.80;53.30
20866;DHT22;10593;48.398;10.698;2024-02-26T07:35:06;7.80;53.30
20866;DHT22;10593;48.398;10.698;2024-02-26T07:37:31;7.80;53.90
20866;DHT22;10593;48.398;10.698;2024-02-26T07:39:57;7.80;53.30
20866;DHT22;10593;48.398;10.698;2024-02-26T07:42:23;7.90;53.30
20866;DHT22;10593;48.398;10.698;2024-02-26T07:44:48;7.90;53.90
20866;DHT22;10593;48.398;10.698;2024-02-26T07:47:14;7.90;53.40
20866;DHT22;10593;48.398;10.698;2024-02-26T07:49:40;7.90;53.50
20866;DHT22;10593;48.398;10.698;2024-02-26T07:52:06;7.90;53.40
20866;DHT22;10593;48.398;10.698;2024-02-26T07:54:32;8.00;53.40
20866;DHT22;10593;48.398;10.698;2024-02-26T07:56:57;7.90;53.30
20866;DHT22;10593;48.398;10.698;2024-02-26T07:59:23;8.00;53.40
20866;DHT22;10593;48.398;10.698;2024-02-26T08:01:52;8.00;53.30
20866;DHT22;10593;48.398;10.698;2024-02-26T08:04:18;8.00;53.20
20866;DHT22;10593;48.398;10.698;2024-02-26T08:06:44;8.10;53.90
20866;DHT22;10593;48.398;10.698;2024-02-26T08:09:09;8.10;53.30
20866;DHT22;10593;48.398;10.698;2024-02-26T08:11:35;8.10;53.20
20866;DHT22;10593;48.398;10.698;2024-02-26T08:14:01;8.20;53.30
20866;DHT22;10593;48.398;10.698;2024-02-26T08:16:27;8.20;53.40
20866;DHT22;10593;48.398;10.698;2024-02-26T08:18:52;8.20;53.50
20866;DHT22;10593;48.398;10.698;2024-02-26T08:21:18;8.30;53.70
20866;DHT22;10593;48.398;10.698;2024-02-26T08:23:44;8.30;53.70
20866;DHT22;10593;48.398;10.698;2024-02-26T08:26:09;8.40;53.60
20866;DHT22;10593;48.398;10.698;2024-02-26T08:28:37;8.50;53.50
20866;DHT22;10593;48.398;10.698;2024-02-26T08:31:03;8.50;53.40
20866;DHT22;10593;48.398;10.698;2024-02-26T08:33:29;8.50;53.20
20866;DHT22;10593;48.398;10.698;2024-02-26T08:35:56;8.50;52.90
20866;DHT22;10593;48.398;10.698;2024-02-26T08:38:22;8.60;52.90
20866;DHT22;10593;48.398;10.698;2024-02-26T08:40:48;8.60;53.00
20866;DHT22;10593;48.398;10.698;2024-02-26T08:43:14;8.60;52.90
20866;DHT22;10593;48.398;10.698;2024-02-26T08:45:40;8.60;52.70
20866;DHT22;10593;48.398;10.698;2024-02-26T08:48:06;8.60;52.70
20866;DHT22;10593;48.398;10.698;2024-02-26T08:50:32;8.70;52.70
20866;DHT22;10593;48.398;10.698;2024-02-26T08:52:58;8.70;52.80
20866;DHT22;10593;48.398;10.698;2024-02-26T08:55:26;8.70;52.60
20866;DHT22;10593;48.398;10.698;2024-02-26T08:57:52;8.80;52.70
20866;DHT22;10593;48.398;10.698;2024-02-26T09:00:18;8.80;52.80
20866;DHT22;10593;48.398;10.698;2024-02-26T09:02:47;8.80;52.70
20866;DHT22;10593;48.398;10.698;2024-02-26T09:05:13;8.80;52.80
20866;DHT22;10593;48.398;10.698;2024-02-26T09:07:38;8.90;53.00
20866;DHT22;10593;48.398;10.698;2024-02-26T09:10:05;8.90;53.00
20866;DHT22;10593;48.398;10.698;2024-02-26T09:12:33;8.90;52.80
20866;DHT22;10593;48.398;10.698;2024-02-26T09:14:59;8.90;52.70
20866;DHT22;10593;48.398;10.698;2024-02-26T09:17:25;9.00;52.70
20866;DHT22;10593;48.398;10.698;2024-02-26T09:19:50;9.00;52.70
20866;DHT22;10593;48.398;10.698;2024-02-26T09:22:16;9.00;52.60
20866;DHT22;10593;48.398;10.698;2024-02-26T09:24:42;9.00;52.50
20866;DHT22;10593;48.398;10.698;2024-02-26T09:27:07;9.10;52.50
20866;DHT22;10593;48.398;10.698;2024-02-26T09:29:35;9.10;52.50
20866;DHT22;10593;48.398;10.698;2024-02-26T09:32:01;9.10;52.50
20866;DHT22;10593;48.398;10.698;2024-02-26T09:34:27;9.20;52.60
20866;DHT22;10593;48.398;10.698;2024-02-26T09:36:52;9.20;52.60
20866;DHT22;10593;48.398;10.698;2024-02-26T09:39:18;9.20;52.60
20866;DHT22;10593;48.398;10.698;2024-02-26T09:41:47;9.20;52.60
20866;DHT22;10593;48.398;10.698;2024-02-26T09:44:18;9.20;52.60
20866;DHT22;10593;48.398;10.698;2024-02-26T09:46:50;9.30;52.50
20866;DHT22;10593;48.398;10.698;2024-02-26T09:49:19;9.30;52.60
20866;DHT22;10593;48.398;10.698;2024-02-26T09:51:47;9.30;52.60
20866;DHT22;10593;48.398;10.698;2024-02-26T09:54:16;9.40;52.60
20866;DHT22;10593;48.398;10.698;2024-02-26T09:56:42;9.40;52.50
20866;DHT22;10593;48.398;10.698;2024-02-26T09:59:16;9.50;52.50
20866;DHT22;10593;48.398;10.698;2024-02-26T10:01:44;9.50;52.50
20866;DHT22;10593;48.398;10.698;2024-02-26T10:04:12;9.60;52.80
20866;DHT22;10593;48.398;10.698;2024-02-26T10:06:39;9.60;52.90
20866;DHT22;10593;48.398;10.698;2024-02-26T10:09:06;9.70;52.90
20866;DHT22;10593;48.398;10.698;2024-02-26T10:11:35;9.70;52.80
20866;DHT22;10593;48.398;10.698;2024-02-26T10:14:03;9.70;52.70
20866;DHT22;10593;48.398;10.698;2024-02-26T10:16:29;9.80;52.70
20866;DHT22;10593;48.398;10.698;2024-02-26T10:18:54;9.80;52.80
20866;DHT22;10593;48.398;10.698;2024-02-26T10:21:21;9.90;52.90
20866;DHT22;10593;48.398;10.698;2024-02-26T10:23:47;9.90;52.70
20866;DHT22;10593;48.398;10.698;2024-02-26T10:26:14;9.90;52.60
20866;DHT22;10593;48.398;10.698;2024-02-26T10:28:45;10.00;51.80
20866;DHT22;10593;48.398;10.698;2024-02-26T10:31:13;10.00;51.90
20866;DHT22;10593;48.398;10.698;2024-02-26T10:33:40;10.10;51.90
20866;DHT22;10593;48.398;10.698;2024-02-26T10:36:07;10.10;51.80
20866;DHT22;10593;48.398;10.698;2024-02-26T10:38:34;10.10;51.40
20866;DHT22;10593;48.398;10.698;2024-02-26T10:41:05;10.10;51.30
20866;DHT22;10593;48.398;10.698;2024-02-26T10:43:32;10.20;51.40
20866;DHT22;10593;48.398;10.698;2024-02-26T10:45:57;10.20;51.40
20866;DHT22;10593;48.398;10.698;2024-02-26T10:48:24;10.30;51.60
20866;DHT22;10593;48.398;10.698;2024-02-26T10:50:49;10.30;51.60
20866;DHT22;10593;48.398;10.698;2024-02-26T10:53:29;10.30;51.60
20866;DHT22;10593;48.398;10.698;2024-02-26T10:56:01;10.40;51.60
20866;DHT22;10593;48.398;10.698;2024-02-26T10:58:29;10.30;51.50
20866;DHT22;10593;48.398;10.698;2024-02-26T11:00:56;10.40;51.60
20866;DHT22;10593;48.398;10.698;2024-02-26T11:03:24;10.40;51.40
20866;DHT22;10593;48.398;10.698;2024-02-26T11:05:50;10.40;51.30
20866;DHT22;10593;48.398;10.698;2024-02-26T11:08:20;10.50;51.40
20866;DHT22;10593;48.398;10.698;2024-02-26T11:10:52;10.50;51.30
20866;DHT22;10593;48.398;10.698;2024-02-26T11:13:19;10.50;51.10
20866;DHT22;10593;48.398;10.698;2024-02-26T11:15:47;10.50;51.10
20866;DHT22;10593;48.398;10.698;2024-02-26T11:18:15;10.60;51.20
20866;DHT22;10593;48.398;10.698;2024-02-26T11:20:44;10.60;51.40
20866;DHT22;10593;48.398;10.698;2024-02-26T11:23:11;10.60;51.30
20866;DHT22;10593;48.398;10.698;2024-02-26T11:25:37;10.70;51.60
20866;DHT22;10593;48.398;10.698;2024-02-26T11:28:07;10.80;51.80
20866;DHT22;10593;48.398;10.698;2024-02-26T11:30:39;10.80;51.40
20866;DHT22;10593;48.398;10.698;2024-02-26T11:33:09;10.90;51.30
20866;DHT22;10593;48.398;10.698;2024-02-26T11:35:38;10.90;51.00
20866;DHT22;10593;48.398;10.698;2024-02-26T11:38:04;10.90;50.80
20866;DHT22;10593;48.398;10.698;2024-02-26T11:40:32;11.00;50.90
20866;DHT22;10593;48.398;10.698;2024-02-26T11:42:59;11.00;50.90
20866;DHT22;10593;48.398;10.698;2024-02-26T11:48:15;11.20;50.90
20866;DHT22;10593;48.398;10.698;2024-02-26T11:50:46;11.20;50.80
20866;DHT22;10593;48.398;10.698;2024-02-26T11:53:21;11.30;50.90
20866;DHT22;10593;48.398;10.698;2024-02-26T11:59:01;11.40;50.40
20866;DHT22;10593;48.398;10.698;2024-02-26T12:01:48;11.50;50.50
20866;DHT22;10593;48.398;10.698;2024-02-26T12:04:18;11.60;50.50
20866;DHT22;10593;48.398;10.698;2024-02-26T12:06:52;11.60;50.30
20866;DHT22;10593;48.398;10.698;2024-02-26T12:09:37;11.70;49.60
20866;DHT22;10593;48.398;10.698;2024-02-26T12:12:09;11.70;48.60
20866;DHT22;10593;48.398;10.698;2024-02-26T12:14:40;11.80;48.90
20866;DHT22;10593;48.398;10.698;2024-02-26T12:17:24;11.80;48.40
20866;DHT22;10593;48.398;10.698;2024-02-26T12:19:51;11.90;48.30
20866;DHT22;10593;48.398;10.698;2024-02-26T12:22:19;11.90;48.30
20866;DHT22;10593;48.398;10.698;2024-02-26T12:24:45;11.90;48.30
20866;DHT22;10593;48.398;10.698;2024-02-26T12:27:11;12.00;48.10
20866;DHT22;10593;48.398;10.698;2024-02-26T12:29:37;12.00;47.40
20866;DHT22;10593;48.398;10.698;2024-02-26T12:32:04;12.00;46.70
20866;DHT22;10593;48.398;10.698;2024-02-26T12:34:31;12.10;46.20
20866;DHT22;10593;48.398;10.698;2024-02-26T12:36:58;12.10;46.00
20866;DHT22;10593;48.398;10.698;2024-02-26T12:39:23;12.10;45.80
20866;DHT22;10593;48.398;10.698;2024-02-26T12:41:49;12.10;45.40
20866;DHT22;10593;48.398;10.698;2024-02-26T12:44:16;12.10;45.10
20866;DHT22;10593;48.398;10.698;2024-02-26T12:46:42;12.10;45.10
20866;DHT22;10593;48.398;10.698;2024-02-26T12:49:08;12.10;45.10
20866;DHT22;10593;48.398;10.698;2024-02-26T12:51:34;12.20;45.20
20866;DHT22;10593;48.398;10.698;2024-02-26T12:54:00;12.20;45.30
20866;DHT22;10593;48.398;10.698;2024-02-26T12:56:27;12.20;45.60
20866;DHT22;10593;48.398;10.698;2024-02-26T12:58:54;12.20;45.70
20866;DHT22;10593;48.398;10.698;2024-02-26T13:01:23;12.20;45.70
20866;DHT22;10593;48.398;10.698;2024-02-26T13:03:51;12.20;45.60
20866;DHT22;10593;48.398;10.698;2024-02-26T13:06:18;12.20;45.60
20866;DHT22;10593;48.398;10.698;2024-02-26T13:08:48;12.20;45.50
20866;DHT22;10593;48.398;10.698;2024-02-26T13:11:14;12.30;45.40
20866;DHT22;10593;48.398;10.698;2024-02-26T13:13:40;12.20;45.30
20866;DHT22;10593;48.398;10.698;2024-02-26T13:16:10;12.20;45.40
20866;DHT22;10593;48.398;10.698;2024-02-26T13:18:40;12.30;45.60
20866;DHT22;10593;48.398;10.698;2024-02-26T13:21:10;12.20;45.60
20866;DHT22;10593;48.398;10.698;2024-02-26T13:23:41;12.30;45.60
20866;DHT22;10593;48.398;10.698;2024-02-26T13:26:08;12.30;45.90
20866;DHT22;10593;48.398;10.698;2024-02-26T13:28:37;12.30;46.30
20866;DHT22;10593;48.398;10.698;2024-02-26T13:31:03;12.20;46.30
20866;DHT22;10593;48.398;10.698;2024-02-26T13:33:32;12.20;46.30
20866;DHT22;10593;48.398;10.698;2024-02-26T13:35:59;12.20;46.30
20866;DHT22;10593;48.398;10.698;2024-02-26T13:38:27;12.20;46.50
20866;DHT22;10593;48.398;10.698;2024-02-26T13:40:54;12.20;46.70
20866;DHT22;10593;48.398;10.698;2024-02-26T13:43:20;12.20;46.70
20866;DHT22;10593;48.398;10.698;2024-02-26T13:45:46;12.20;46.80
20866;DHT22;10593;48.398;10.698;2024-02-26T13:48:14;12.20;46.90
20866;DHT22;10593;48.398;10.698;2024-02-26T13:50:41;12.20;47.10
20866;DHT22;10593;48.398;10.698;2024-02-26T13:53:11;12.20;47.10
20866;DHT22;10593;48.398;10.698;2024-02-26T13:55:38;12.20;47.20
20866;DHT22;10593;48.398;10.698;2024-02-26T13:58:05;12.20;47.20
20866;DHT22;10593;48.398;10.698;2024-02-26T14:00:32;12.20;47.20
20866;DHT22;10593;48.398;10.698;2024-02-26T14:02:59;12.20;47.50
20866;DHT22;10593;48.398;10.698;2024-02-26T14:05:26;12.20;47.80
20866;DHT22;10593;48.398;10.698;2024-02-26T14:07:52;12.20;47.90
20866;DHT22;10593;48.398;10.698;2024-02-26T14:10:19;12.20;48.20
20866;DHT22;10593;48.398;10.698;2024-02-26T14:12:45;12.20;48.20
20866;DHT22;10593;48.398;10.698;2024-02-26T14:15:10;12.10;48.10
20866;DHT22;10593;48.398;10.698;2024-02-26T14:17:36;12.10;48.30
20866;DHT22;10593;48.398;10.698;2024-02-26T14:20:02;12.20;48.50
20866;DHT22;10593;48.398;10.698;2024-02-26T14:22:29;12.10;48.60
20866;DHT22;10593;48.398;10.698;2024-02-26T14:24:56;12.20;48.70
20866;DHT22;10593;48.398;10.698;2024-02-26T14:27:23;12.10;48.60
20866;DHT22;10593;48.398;10.698;2024-02-26T14:29:49;12.10;48.70
20866;DHT22;10593;48.398;10.698;2024-02-26T14:32:15;12.10;49.00
20866;DHT22;10593;48.398;10.698;2024-02-26T14:34:41;12.10;49.30
20866;DHT22;10593;48.398;10.698;2024-02-26T14:37:07;12.10;49.20
20866;DHT22;10593;48.398;10.698;2024-02-26T14:39:33;12.10;49.10
20866;DHT22;10593;48.398;10.698;2024-02-26T14:41:59;12.10;49.20
20866;DHT22;10593;48.398;10.698;2024-02-26T14:44:26;12.10;49.20
20866;DHT22;10593;48.398;10.698;2024-02-26T14:46:52;12.00;49.20
20866;DHT22;10593;48.398;10.698;2024-02-26T14:49:18;12.00;49.40
20866;DHT22;10593;48.398;10.698;2024-02-26T14:51:45;12.00;49.40
20866;DHT22;10593;48.398;10.698;2024-02-26T14:54:11;12.00;49.30
20866;DHT22;10593;48.398;10.698;2024-02-26T14:56:38;12.00;50.00
20866;DHT22;10593;48.398;10.698;2024-02-26T14:59:04;12.00;49.60
20866;DHT22;10593;48.398;10.698;2024-02-26T15:01:30;12.00;49.60
20866;DHT22;10593;48.398;10.698;2024-02-26T15:03:56;12.00;49.60
20866;DHT22;10593;48.398;10.698;2024-02-26T15:06:23;11.90;49.50
20866;DHT22;10593;48.398;10.698;2024-02-26T15:08:49;12.00;49.60
20866;DHT22;10593;48.398;10.698;2024-02-26T15:11:14;12.00;49.60
20866;DHT22;10593;48.398;10.698;2024-02-26T15:13:40;11.90;49.60
20866;DHT22;10593;48.398;10.698;2024-02-26T15:16:06;11.90;49.90
20866;DHT22;10593;48.398;10.698;2024-02-26T15:18:32;11.90;50.00
20866;DHT22;10593;48.398;10.698;2024-02-26T15:20:58;11.90;50.10
20866;DHT22;10593;48.398;10.698;2024-02-26T15:23:24;11.90;50.10
20866;DHT22;10593;48.398;10.698;2024-02-26T15:25:50;11.90;50.30
20866;DHT22;10593;48.398;10.698;2024-02-26T15:28:15;11.90;50.40